sensor_id;sensor_type;location;lat;lon;timestamp;pressure;altitude;pressure_sealevel;temperature;humidity
50292;BME280;36190;54.980;73.388;2023-03-21T00:00:53;101337.47;;;-9.95;57.45
50292;BME280;36190;54.980;73.388;2023-03-21T00:03:21;101334.06;;;-9.97;57.58
50292;BME280;36190;54.980;73.388;2023-03-21T00:05:48;101336.66;;;-9.95;57.55
50292;BME280;36190;54.980;73.388;2023-03-21T00:08:18;101328.91;;;-9.95;57.48
50292;BME280;36190;54.980;73.388;2023-03-21T00:10:46;101328.84;;;-9.92;57.42
50292;BME280;36190;54.980;73.388;2023-03-21T00:13:14;101334.03;;;-9.94;57.38
50292;BME280;36190;54.980;73.388;2023-03-21T00:15:43;101334.03;;;-9.94;57.25
50292;BME280;36190;54.980;73.388;2023-03-21T00:18:20;101338.34;;;-9.94;57.27
50292;BME280;36190;54.980;73.388;2023-03-21T00:20:55;101336.63;;;-9.94;57.39
50292;BME280;36190;54.980;73.388;2023-03-21T00:23:24;101338.34;;;-9.94;57.29
50292;BME280;36190;54.980;73.388;2023-03-21T00:25:51;101337.53;;;-9.98;57.22
50292;BME280;36190;54.980;73.388;2023-03-21T00:28:19;101336.66;;;-9.98;57.28
50292;BME280;36190;54.980;73.388;2023-03-21T00:30:46;101336.69;;;-10.00;57.38
50292;BME280;36190;54.980;73.388;2023-03-21T00:33:14;101333.22;;;-10.00;57.33
50292;BME280;36190;54.980;73.388;2023-03-21T00:35:49;101328.94;;;-10.01;57.20
50292;BME280;36190;54.980;73.388;2023-03-21T00:38:17;101328.94;;;-10.03;57.02
50292;BME280;36190;54.980;73.388;2023-03-21T00:40:45;101327.28;;;-10.07;57.23
50292;BME280;36190;54.980;73.388;2023-03-21T00:43:12;101325.56;;;-10.11;57.25
50292;BME280;36190;54.980;73.388;2023-03-21T00:45:42;101332.53;;;-10.16;57.31
50292;BME280;36190;54.980;73.388;2023-03-21T00:48:10;101327.34;;;-10.16;57.48
50292;BME280;36190;54.980;73.388;2023-03-21T00:50:39;101323.03;;;-10.14;57.59
50292;BME280;36190;54.980;73.388;2023-03-21T00:53:08;101325.63;;;-10.14;57.36
50292;BME280;36190;54.980;73.388;2023-03-21T00:55:36;101322.19;;;-10.19;57.51
50292;BME280;36190;54.980;73.388;2023-03-21T00:58:03;101320.50;;;-10.22;57.40
50292;BME280;36190;54.980;73.388;2023-03-21T01:00:31;101318.81;;;-10.25;57.54
50292;BME280;36190;54.980;73.388;2023-03-21T01:03:01;101324.00;;;-10.28;57.55
50292;BME280;36190;54.980;73.388;2023-03-21T01:05:32;101324.00;;;-10.28;57.55
50292;BME280;36190;54.980;73.388;2023-03-21T01:08:20;101314.53;;;-10.27;57.58
50292;BME280;36190;54.980;73.388;2023-03-21T01:10:48;101317.94;;;-10.27;57.54
50292;BME280;36190;54.980;73.388;2023-03-21T01:13:18;101290.59;;;-10.43;57.52
50292;BME280;36190;54.980;73.388;2023-03-21T01:15:47;101320.56;;;-10.30;57.66
50292;BME280;36190;54.980;73.388;2023-03-21T01:18:17;101316.31;;;-10.36;57.66
50292;BME280;36190;54.980;73.388;2023-03-21T01:20:46;101323.13;;;-10.25;57.65
50292;BME280;36190;54.980;73.388;2023-03-21T01:23:14;101283.75;;;-10.46;57.64
50292;BME280;36190;54.980;73.388;2023-03-21T01:25:43;101327.38;;;-10.19;57.55
50292;BME280;36190;54.980;73.388;2023-03-21T01:28:13;101326.50;;;-10.18;57.49
50292;BME280;36190;54.980;73.388;2023-03-21T01:30:44;101326.50;;;-10.17;57.59
50292;BME280;36190;54.980;73.388;2023-03-21T01:33:12;101323.91;;;-10.15;57.52
50292;BME280;36190;54.980;73.388;2023-03-21T01:35:39;101322.19;;;-10.16;57.37
50292;BME280;36190;54.980;73.388;2023-03-21T01:38:07;101327.41;;;-10.21;57.45
50292;BME280;36190;54.980;73.388;2023-03-21T01:40:36;101323.13;;;-10.27;57.44
50292;BME280;36190;54.980;73.388;2023-03-21T01:43:22;101326.53;;;-10.22;57.75
50292;BME280;36190;54.980;73.388;2023-03-21T01:46:25;101331.66;;;-10.15;57.56
50292;BME280;36190;54.980;73.388;2023-03-21T01:48:56;101333.34;;;-10.13;57.48
50292;BME280;36190;54.980;73.388;2023-03-21T01:51:26;101337.59;;;-10.07;57.37
50292;BME280;36190;54.980;73.388;2023-03-21T01:53:55;101337.53;;;-9.99;57.44
50292;BME280;36190;54.980;73.388;2023-03-21T01:56:25;101334.91;;;-9.91;57.39
50292;BME280;36190;54.980;73.388;2023-03-21T01:58:59;101330.47;;;-9.82;57.14
50292;BME280;36190;54.980;73.388;2023-03-21T02:01:29;101339.97;;;-9.81;57.02
50292;BME280;36190;54.980;73.388;2023-03-21T02:03:59;101342.56;;;-9.85;57.07
50292;BME280;36190;54.980;73.388;2023-03-21T02:06:35;101339.19;;;-9.89;57.03
50292;BME280;36190;54.980;73.388;2023-03-21T02:09:08;101345.19;;;-9.88;57.11
50292;BME280;36190;54.980;73.388;2023-03-21T02:11:38;101345.97;;;-9.78;57.10
50292;BME280;36190;54.980;73.388;2023-03-21T02:14:11;101346.72;;;-9.69;57.02
50292;BME280;36190;54.980;73.388;2023-03-21T02:16:47;101342.34;;;-9.60;56.82
50292;BME280;36190;54.980;73.388;2023-03-21T02:22:36;101355.19;;;-9.53;56.64
50292;BME280;36190;54.980;73.388;2023-03-21T02:25:30;101358.59;;;-9.49;56.61
50292;BME280;36190;54.980;73.388;2023-03-21T02:28:06;101356.88;;;-9.50;56.40
50292;BME280;36190;54.980;73.388;2023-03-21T02:30:52;101341.44;;;-9.58;56.47
50292;BME280;36190;54.980;73.388;2023-03-21T02:33:52;101360.97;;;-9.32;56.43
50292;BME280;36190;54.980;73.388;2023-03-21T02:36:46;101364.31;;;-9.19;56.27
50292;BME280;36190;54.980;73.388;2023-03-21T02:39:17;101353.88;;;-9.09;56.01
50292;BME280;36190;54.980;73.388;2023-03-21T02:41:53;101367.50;;;-8.98;55.90
50292;BME280;36190;54.980;73.388;2023-03-21T02:44:29;101366.56;;;-8.89;55.82
50292;BME280;36190;54.980;73.388;2023-03-21T02:47:04;101365.53;;;-8.77;55.59
50292;BME280;36190;54.980;73.388;2023-03-21T02:49:38;101375.75;;;-8.68;55.46
50292;BME280;36190;54.980;73.388;2023-03-21T02:52:12;101373.94;;;-8.60;55.17
50292;BME280;36190;54.980;73.388;2023-03-21T02:54:42;101371.28;;;-8.55;55.15
50292;BME280;36190;54.980;73.388;2023-03-21T02:57:12;101368.50;;;-8.44;54.96
50292;BME280;36190;54.980;73.388;2023-03-21T02:59:41;101370.88;;;-8.30;54.95
50292;BME280;36190;54.980;73.388;2023-03-21T03:02:10;101372.50;;;-8.23;54.64
50292;BME280;36190;54.980;73.388;2023-03-21T03:04:38;101369.84;;;-8.18;54.62
50292;BME280;36190;54.980;73.388;2023-03-21T03:07:15;101374.91;;;-8.10;54.37
50292;BME280;36190;54.980;73.388;2023-03-21T03:10:00;101359.34;;;-8.10;54.45
50292;BME280;36190;54.980;73.388;2023-03-21T03:12:36;101368.56;;;-7.92;54.26
50292;BME280;36190;54.980;73.388;2023-03-21T03:15:11;101375.38;;;-7.87;54.13
50292;BME280;36190;54.980;73.388;2023-03-21T03:17:50;101365.09;;;-7.90;53.97
50292;BME280;36190;54.980;73.388;2023-03-21T03:20:27;101370.91;;;-7.77;53.99
50292;BME280;36190;54.980;73.388;2023-03-21T03:23:11;101368.97;;;-7.65;53.84
50292;BME280;36190;54.980;73.388;2023-03-21T03:25:43;101363.72;;;-7.61;53.98
50292;BME280;36190;54.980;73.388;2023-03-21T03:28:16;101367.09;;;-7.55;53.55
50292;BME280;36190;54.980;73.388;2023-03-21T03:30:47;101368.69;;;-7.48;53.53
50292;BME280;36190;54.980;73.388;2023-03-21T03:33:16;101359.13;;;-7.46;53.53
50292;BME280;36190;54.980;73.388;2023-03-21T03:35:49;101356.41;;;-7.38;53.24
50292;BME280;36190;54.980;73.388;2023-03-21T03:38:20;101364.84;;;-7.27;53.11
50292;BME280;36190;54.980;73.388;2023-03-21T03:40:52;101360.47;;;-7.25;53.10
50292;BME280;36190;54.980;73.388;2023-03-21T03:43:23;101368.13;;;-7.19;52.87
50292;BME280;36190;54.980;73.388;2023-03-21T03:45:57;101361.94;;;-7.11;52.77
50292;BME280;36190;54.980;73.388;2023-03-21T03:48:28;101363.56;;;-7.06;52.58
50292;BME280;36190;54.980;73.388;2023-03-21T03:51:00;101371.19;;;-6.98;52.64
50292;BME280;36190;54.980;73.388;2023-03-21T03:53:34;101364.16;;;-6.93;52.37
50292;BME280;36190;54.980;73.388;2023-03-21T03:56:04;101364.03;;;-6.86;52.46
50292;BME280;36190;54.980;73.388;2023-03-21T03:58:35;101363.84;;;-6.77;52.26
50292;BME280;36190;54.980;73.388;2023-03-21T04:01:04;101367.94;;;-6.67;52.19
50292;BME280;36190;54.980;73.388;2023-03-21T04:03:34;101372.13;;;-6.59;51.90
50292;BME280;36190;54.980;73.388;2023-03-21T04:06:04;101369.31;;;-6.50;51.92
50292;BME280;36190;54.980;73.388;2023-03-21T04:08:32;101367.56;;;-6.48;51.78
50292;BME280;36190;54.980;73.388;2023-03-21T04:11:02;101375.28;;;-6.45;51.66
50292;BME280;36190;54.980;73.388;2023-03-21T04:13:30;101368.25;;;-6.40;51.55
50292;BME280;36190;54.980;73.388;2023-03-21T04:15:57;101367.22;;;-6.32;51.52
50292;BME280;36190;54.980;73.388;2023-03-21T04:18:25;101369.66;;;-6.26;51.68
50292;BME280;36190;54.980;73.388;2023-03-21T04:20:52;101371.31;;;-6.22;51.22
50292;BME280;36190;54.980;73.388;2023-03-21T04:23:20;101370.50;;;-6.24;51.14
50292;BME280;36190;54.980;73.388;2023-03-21T04:25:49;101371.22;;;-6.19;51.18
50292;BME280;36190;54.980;73.388;2023-03-21T04:28:17;101376.19;;;-6.10;51.19
50292;BME280;36190;54.980;73.388;2023-03-21T04:30:47;101362.91;;;-5.99;51.05
50292;BME280;36190;54.980;73.388;2023-03-21T04:33:15;101370.59;;;-5.94;50.95
50292;BME280;36190;54.980;73.388;2023-03-21T04:35:44;101374.03;;;-5.92;50.75
50292;BME280;36190;54.980;73.388;2023-03-21T04:38:12;101366.81;;;-5.81;50.80
50292;BME280;36190;54.980;73.388;2023-03-21T04:40:39;101368.22;;;-5.67;50.63
50292;BME280;36190;54.980;73.388;2023-03-21T04:43:08;101375.78;;;-5.58;50.23
50292;BME280;36190;54.980;73.388;2023-03-21T04:45:35;101371.28;;;-5.53;50.21
50292;BME280;36190;54.980;73.388;2023-03-21T04:48:03;101366.84;;;-5.49;50.12
50292;BME280;36190;54.980;73.388;2023-03-21T04:50:31;101368.69;;;-5.53;50.01
50292;BME280;36190;54.980;73.388;2023-03-21T04:52:58;101359.38;;;-5.60;49.96
50292;BME280;36190;54.980;73.388;2023-03-21T04:55:26;101358.50;;;-5.60;50.06
50292;BME280;36190;54.980;73.388;2023-03-21T04:57:54;101354.88;;;-5.55;50.10
50292;BME280;36190;54.980;73.388;2023-03-21T05:00:24;101365.09;;;-5.47;49.95
50292;BME280;36190;54.980;73.388;2023-03-21T05:02:52;101357.88;;;-5.37;49.97
50292;BME280;36190;54.980;73.388;2023-03-21T05:05:19;101358.47;;;-5.26;49.70
50292;BME280;36190;54.980;73.388;2023-03-21T05:07:46;101355.66;;;-5.19;49.56
50292;BME280;36190;54.980;73.388;2023-03-21T05:10:14;101359.91;;;-5.15;49.43
50292;BME280;36190;54.980;73.388;2023-03-21T05:12:42;101363.31;;;-5.13;49.21
50292;BME280;36190;54.980;73.388;2023-03-21T05:15:09;101360.56;;;-5.08;49.17
50292;BME280;36190;54.980;73.388;2023-03-21T05:17:38;101355.97;;;-4.99;49.04
50292;BME280;36190;54.980;73.388;2023-03-21T05:20:09;101355.00;;;-4.94;48.94
50292;BME280;36190;54.980;73.388;2023-03-21T05:22:37;101337.59;;;-4.94;48.79
50292;BME280;36190;54.980;73.388;2023-03-21T05:25:07;101349.41;;;-4.82;48.83
50292;BME280;36190;54.980;73.388;2023-03-21T05:27:34;101352.03;;;-4.82;48.66
50292;BME280;36190;54.980;73.388;2023-03-21T05:30:05;101342.69;;;-4.89;48.41
50292;BME280;36190;54.980;73.388;2023-03-21T05:32:33;101348.78;;;-4.90;48.71
50292;BME280;36190;54.980;73.388;2023-03-21T05:35:03;101346.22;;;-4.92;48.67
50292;BME280;36190;54.980;73.388;2023-03-21T05:37:30;101336.78;;;-4.94;48.87
50292;BME280;36190;54.980;73.388;2023-03-21T05:39:58;101340.84;;;-4.86;48.68
50292;BME280;36190;54.980;73.388;2023-03-21T05:42:25;101344.72;;;-4.71;48.54
50292;BME280;36190;54.980;73.388;2023-03-21T05:44:53;101349.47;;;-4.55;48.46
50292;BME280;36190;54.980;73.388;2023-03-21T05:47:20;101337.88;;;-4.45;48.06
50292;BME280;36190;54.980;73.388;2023-03-21T05:49:48;101343.66;;;-4.35;47.91
50292;BME280;36190;54.980;73.388;2023-03-21T05:52:17;101336.41;;;-4.25;47.63
50292;BME280;36190;54.980;73.388;2023-03-21T05:54:44;101336.88;;;-4.14;47.63
50292;BME280;36190;54.980;73.388;2023-03-21T05:57:12;101330.34;;;-3.98;47.44
50292;BME280;36190;54.980;73.388;2023-03-21T05:59:39;101330.06;;;-3.91;47.20
50292;BME280;36190;54.980;73.388;2023-03-21T06:02:07;101329.75;;;-3.81;47.21
50292;BME280;36190;54.980;73.388;2023-03-21T06:04:34;101333.78;;;-3.71;47.06
50292;BME280;36190;54.980;73.388;2023-03-21T06:07:02;101336.06;;;-3.62;47.07
50292;BME280;36190;54.980;73.388;2023-03-21T06:09:31;101325.31;;;-3.52;47.00
50292;BME280;36190;54.980;73.388;2023-03-21T06:11:58;101320.78;;;-3.47;46.92
50292;BME280;36190;54.980;73.388;2023-03-21T06:14:26;101328.28;;;-3.38;46.87
50292;BME280;36190;54.980;73.388;2023-03-21T06:16:54;101313.13;;;-3.28;47.07
50292;BME280;36190;54.980;73.388;2023-03-21T06:19:21;101312.72;;;-3.17;46.68
50292;BME280;36190;54.980;73.388;2023-03-21T06:21:49;101309.91;;;-3.11;46.55
50292;BME280;36190;54.980;73.388;2023-03-21T06:24:16;101313.06;;;-3.02;46.75
50292;BME280;36190;54.980;73.388;2023-03-21T06:26:45;101308.41;;;-2.94;46.70
50292;BME280;36190;54.980;73.388;2023-03-21T06:29:13;101308.06;;;-2.85;46.60
50292;BME280;36190;54.980;73.388;2023-03-21T06:31:40;101321.63;;;-2.75;46.33
50292;BME280;36190;54.980;73.388;2023-03-21T06:34:08;101317.66;;;-2.61;46.35
50292;BME280;36190;54.980;73.388;2023-03-21T06:36:36;101312.78;;;-2.49;46.05
50292;BME280;36190;54.980;73.388;2023-03-21T06:39:04;101317.63;;;-2.39;46.06
50292;BME280;36190;54.980;73.388;2023-03-21T06:41:33;101311.34;;;-2.35;45.89
50292;BME280;36190;54.980;73.388;2023-03-21T06:44:02;101317.13;;;-2.27;45.74
50292;BME280;36190;54.980;73.388;2023-03-21T06:46:29;101312.44;;;-2.18;45.65
50292;BME280;36190;54.980;73.388;2023-03-21T06:48:57;101309.56;;;-2.12;45.60
50292;BME280;36190;54.980;73.388;2023-03-21T06:51:24;101314.56;;;-2.06;45.40
50292;BME280;36190;54.980;73.388;2023-03-21T06:53:52;101311.63;;;-1.98;45.21
50292;BME280;36190;54.980;73.388;2023-03-21T06:56:19;101310.50;;;-1.92;45.02
50292;BME280;36190;54.980;73.388;2023-03-21T06:58:47;101301.47;;;-1.85;44.79
50292;BME280;36190;54.980;73.388;2023-03-21T07:01:16;101303.69;;;-1.76;44.75
50292;BME280;36190;54.980;73.388;2023-03-21T07:03:43;101298.00;;;-1.65;44.58
50292;BME280;36190;54.980;73.388;2023-03-21T07:06:11;101307.38;;;-1.59;44.64
50292;BME280;36190;54.980;73.388;2023-03-21T07:08:39;101301.03;;;-1.54;44.67
50292;BME280;36190;54.980;73.388;2023-03-21T07:11:07;101309.72;;;-1.53;44.59
50292;BME280;36190;54.980;73.388;2023-03-21T07:13:35;101305.13;;;-1.48;44.42
50292;BME280;36190;54.980;73.388;2023-03-21T07:16:03;101309.19;;;-1.41;44.42
50292;BME280;36190;54.980;73.388;2023-03-21T07:18:32;101301.06;;;-1.34;44.18
50292;BME280;36190;54.980;73.388;2023-03-21T07:20:59;101303.28;;;-1.25;44.10
50292;BME280;36190;54.980;73.388;2023-03-21T07:23:27;101299.31;;;-1.15;43.95
50292;BME280;36190;54.980;73.388;2023-03-21T07:25:55;101305.53;;;-0.98;43.90
50292;BME280;36190;54.980;73.388;2023-03-21T07:28:23;101302.38;;;-0.86;43.57
50292;BME280;36190;54.980;73.388;2023-03-21T07:30:54;101304.34;;;-0.72;43.22
50292;BME280;36190;54.980;73.388;2023-03-21T07:33:22;101299.97;;;-0.53;43.45
50292;BME280;36190;54.980;73.388;2023-03-21T07:35:52;101309.50;;;-0.33;43.25
50292;BME280;36190;54.980;73.388;2023-03-21T07:38:20;101303.44;;;-0.16;43.09
50292;BME280;36190;54.980;73.388;2023-03-21T07:40:47;101300.34;;;-0.07;42.72
50292;BME280;36190;54.980;73.388;2023-03-21T07:43:16;101306.69;;;0.07;42.68
50292;BME280;36190;54.980;73.388;2023-03-21T07:45:44;101300.91;;;0.18;42.42
50292;BME280;36190;54.980;73.388;2023-03-21T07:48:12;101307.31;;;0.30;42.49
50292;BME280;36190;54.980;73.388;2023-03-21T07:50:42;101302.94;;;0.46;42.38
50292;BME280;36190;54.980;73.388;2023-03-21T07:53:11;101300.78;;;0.54;42.16
50292;BME280;36190;54.980;73.388;2023-03-21T07:55:38;101310.78;;;0.64;42.02
50292;BME280;36190;54.980;73.388;2023-03-21T07:58:05;101302.50;;;0.72;41.91
50292;BME280;36190;54.980;73.388;2023-03-21T08:00:33;101298.94;;;0.73;41.94
50292;BME280;36190;54.980;73.388;2023-03-21T08:03:00;101295.72;;;0.84;41.59
50292;BME280;36190;54.980;73.388;2023-03-21T08:05:29;101296.16;;;0.92;41.04
50292;BME280;36190;54.980;73.388;2023-03-21T08:07:59;101289.66;;;0.99;40.76
50292;BME280;36190;54.980;73.388;2023-03-21T08:10:29;101299.31;;;1.15;40.41
50292;BME280;36190;54.980;73.388;2023-03-21T08:12:56;101287.78;;;1.33;40.37
50292;BME280;36190;54.980;73.388;2023-03-21T08:15:24;101297.09;;;1.55;40.15
50292;BME280;36190;54.980;73.388;2023-03-21T08:17:51;101293.78;;;1.68;39.88
50292;BME280;36190;54.980;73.388;2023-03-21T08:20:20;101295.78;;;1.78;39.47
50292;BME280;36190;54.980;73.388;2023-03-21T08:22:48;101296.44;;;1.82;39.30
50292;BME280;36190;54.980;73.388;2023-03-21T08:25:17;101296.69;;;1.94;39.38
50292;BME280;36190;54.980;73.388;2023-03-21T08:27:48;101295.94;;;2.06;39.21
50292;BME280;36190;54.980;73.388;2023-03-21T08:30:17;101293.00;;;2.27;39.17
50292;BME280;36190;54.980;73.388;2023-03-21T08:32:45;101290.38;;;2.41;39.02
50292;BME280;36190;54.980;73.388;2023-03-21T08:35:14;101293.75;;;2.43;38.92
50292;BME280;36190;54.980;73.388;2023-03-21T08:37:42;101288.00;;;2.37;39.08
50292;BME280;36190;54.980;73.388;2023-03-21T08:40:11;101295.34;;;2.31;38.89
50292;BME280;36190;54.980;73.388;2023-03-21T08:42:40;101285.28;;;2.38;38.94
50292;BME280;36190;54.980;73.388;2023-03-21T08:45:10;101284.72;;;2.47;38.57
50292;BME280;36190;54.980;73.388;2023-03-21T08:47:37;101286.25;;;2.52;38.78
50292;BME280;36190;54.980;73.388;2023-03-21T08:50:07;101294.16;;;2.66;38.62
50292;BME280;36190;54.980;73.388;2023-03-21T08:52:35;101287.72;;;2.85;38.51
50292;BME280;36190;54.980;73.388;2023-03-21T08:55:03;101287.16;;;2.94;38.43
50292;BME280;36190;54.980;73.388;2023-03-21T08:57:31;101291.75;;;3.05;38.14
50292;BME280;36190;54.980;73.388;2023-03-21T08:59:58;101287.59;;;3.15;38.11
50292;BME280;36190;54.980;73.388;2023-03-21T09:02:27;101288.81;;;3.24;38.01
50292;BME280;36190;54.980;73.388;2023-03-21T09:04:55;101297.31;;;3.42;37.86
50292;BME280;36190;54.980;73.388;2023-03-21T09:07:24;101290.00;;;3.61;37.66
50292;BME280;36190;54.980;73.388;2023-03-21T09:09:52;101300.53;;;3.61;37.42
50292;BME280;36190;54.980;73.388;2023-03-21T09:12:20;101299.28;;;3.66;37.39
50292;BME280;36190;54.980;73.388;2023-03-21T09:14:48;101292.91;;;3.83;37.08
50292;BME280;36190;54.980;73.388;2023-03-21T09:17:15;101294.19;;;3.91;36.61
50292;BME280;36190;54.980;73.388;2023-03-21T09:19:44;101299.16;;;3.95;36.60
50292;BME280;36190;54.980;73.388;2023-03-21T09:22:14;101300.75;;;3.98;36.62
50292;BME280;36190;54.980;73.388;2023-03-21T09:24:42;101299.81;;;3.99;36.71
50292;BME280;36190;54.980;73.388;2023-03-21T09:27:12;101304.69;;;4.05;36.37
50292;BME280;36190;54.980;73.388;2023-03-21T09:29:42;101309.88;;;4.20;36.22
50292;BME280;36190;54.980;73.388;2023-03-21T09:32:09;101290.22;;;4.24;36.16
50292;BME280;36190;54.980;73.388;2023-03-21T09:34:38;101291.69;;;4.15;36.05
50292;BME280;36190;54.980;73.388;2023-03-21T09:37:08;101285.88;;;3.97;36.10
50292;BME280;36190;54.980;73.388;2023-03-21T09:39:38;101293.25;;;3.92;36.20
50292;BME280;36190;54.980;73.388;2023-03-21T09:42:19;101289.19;;;3.73;36.09
50292;BME280;36190;54.980;73.388;2023-03-21T09:45:03;101287.91;;;3.66;36.22
50292;BME280;36190;54.980;73.388;2023-03-21T09:47:38;101285.31;;;3.51;36.24
50292;BME280;36190;54.980;73.388;2023-03-21T09:50:17;101242.84;;;3.14;36.34
50292;BME280;36190;54.980;73.388;2023-03-21T09:52:49;101283.28;;;3.42;36.14
50292;BME280;36190;54.980;73.388;2023-03-21T09:55:21;101274.94;;;3.35;36.43
50292;BME280;36190;54.980;73.388;2023-03-21T09:57:54;101289.34;;;3.57;36.19
50292;BME280;36190;54.980;73.388;2023-03-21T10:00:27;101272.84;;;3.53;36.00
50292;BME280;36190;54.980;73.388;2023-03-21T10:03:02;101281.03;;;3.63;35.71
50292;BME280;36190;54.980;73.388;2023-03-21T10:05:32;101282.00;;;3.75;35.56
50292;BME280;36190;54.980;73.388;2023-03-21T10:08:08;101279.72;;;3.83;35.45
50292;BME280;36190;54.980;73.388;2023-03-21T10:10:44;101279.63;;;3.85;35.38
50292;BME280;36190;54.980;73.388;2023-03-21T10:13:16;101279.72;;;3.83;35.62
50292;BME280;36190;54.980;73.388;2023-03-21T10:15:43;101279.09;;;3.93;35.58
50292;BME280;36190;54.980;73.388;2023-03-21T10:18:15;101279.09;;;3.93;35.60
50292;BME280;36190;54.980;73.388;2023-03-21T10:20:45;101276.78;;;4.01;35.87
50292;BME280;36190;54.980;73.388;2023-03-21T10:23:16;101279.34;;;4.16;35.67
50292;BME280;36190;54.980;73.388;2023-03-21T10:25:48;101273.66;;;4.22;35.55
50292;BME280;36190;54.980;73.388;2023-03-21T10:28:18;101265.59;;;4.10;35.72
50292;BME280;36190;54.980;73.388;2023-03-21T10:30:48;101285.91;;;4.23;35.64
50292;BME280;36190;54.980;73.388;2023-03-21T10:33:19;101267.50;;;4.34;35.27
50292;BME280;36190;54.980;73.388;2023-03-21T10:35:50;101281.25;;;4.39;34.94
50292;BME280;36190;54.980;73.388;2023-03-21T10:38:22;101279.34;;;4.42;34.74
50292;BME280;36190;54.980;73.388;2023-03-21T10:40:51;101290.22;;;4.50;34.84
50292;BME280;36190;54.980;73.388;2023-03-21T10:43:30;101290.13;;;4.64;34.14
50292;BME280;36190;54.980;73.388;2023-03-21T10:46:05;101281.22;;;4.65;34.01
50292;BME280;36190;54.980;73.388;2023-03-21T10:48:34;101283.22;;;4.75;34.40
50292;BME280;36190;54.980;73.388;2023-03-21T10:51:04;101286.31;;;4.56;34.17
50292;BME280;36190;54.980;73.388;2023-03-21T10:53:38;101283.78;;;4.28;33.88
50292;BME280;36190;54.980;73.388;2023-03-21T10:56:08;101288.22;;;4.15;34.26
50292;BME280;36190;54.980;73.388;2023-03-21T10:58:41;101275.00;;;4.28;34.14
50292;BME280;36190;54.980;73.388;2023-03-21T11:01:23;101279.66;;;4.50;34.11
50292;BME280;36190;54.980;73.388;2023-03-21T11:03:57;101288.94;;;4.56;33.98
50292;BME280;36190;54.980;73.388;2023-03-21T11:06:30;101269.16;;;4.61;33.64
50292;BME280;36190;54.980;73.388;2023-03-21T11:09:05;101274.47;;;4.48;33.37
50292;BME280;36190;54.980;73.388;2023-03-21T11:11:37;101278.06;;;4.08;33.75
50292;BME280;36190;54.980;73.388;2023-03-21T11:14:06;101267.56;;;3.94;34.24
50292;BME280;36190;54.980;73.388;2023-03-21T11:16:40;101269.19;;;4.09;34.04
50292;BME280;36190;54.980;73.388;2023-03-21T11:19:18;101252.78;;;4.04;34.00
50292;BME280;36190;54.980;73.388;2023-03-21T11:21:45;101264.59;;;3.85;34.50
50292;BME280;36190;54.980;73.388;2023-03-21T11:24:16;101261.50;;;3.66;34.38
50292;BME280;36190;54.980;73.388;2023-03-21T11:26:47;101267.41;;;3.56;34.29
50292;BME280;36190;54.980;73.388;2023-03-21T11:29:25;101267.19;;;3.60;34.24
50292;BME280;36190;54.980;73.388;2023-03-21T11:31:57;101270.09;;;3.82;34.41
50292;BME280;36190;54.980;73.388;2023-03-21T11:34:30;101277.09;;;3.96;34.23
50292;BME280;36190;54.980;73.388;2023-03-21T11:37:00;101279.97;;;4.06;34.15
50292;BME280;36190;54.980;73.388;2023-03-21T11:39:34;101287.59;;;4.24;33.81
50292;BME280;36190;54.980;73.388;2023-03-21T11:44:49;101288.44;;;4.37;33.61
50292;BME280;36190;54.980;73.388;2023-03-21T11:47:23;101284.72;;;4.40;33.61
50292;BME280;36190;54.980;73.388;2023-03-21T11:49:51;101288.00;;;4.57;33.47
50292;BME280;36190;54.980;73.388;2023-03-21T11:52:22;101271.69;;;4.76;33.12
50292;BME280;36190;54.980;73.388;2023-03-21T11:55:04;101272.53;;;4.89;32.73
50292;BME280;36190;54.980;73.388;2023-03-21T11:57:39;101271.44;;;5.05;32.77
50292;BME280;36190;54.980;73.388;2023-03-21T12:00:15;101264.69;;;5.25;32.69
50292;BME280;36190;54.980;73.388;2023-03-21T12:03:11;101257.38;;;5.29;32.43
50292;BME280;36190;54.980;73.388;2023-03-21T12:05:47;101252.81;;;4.93;32.82
50292;BME280;36190;54.980;73.388;2023-03-21T12:08:25;101256.88;;;4.73;33.12
50292;BME280;36190;54.980;73.388;2023-03-21T12:11:03;101261.25;;;4.35;33.37
50292;BME280;36190;54.980;73.388;2023-03-21T12:13:50;101249.81;;;3.96;33.38
50292;BME280;36190;54.980;73.388;2023-03-21T12:16:29;101248.16;;;3.54;33.86
50292;BME280;36190;54.980;73.388;2023-03-21T12:19:20;101258.44;;;3.32;34.03
50292;BME280;36190;54.980;73.388;2023-03-21T12:21:59;101249.47;;;3.07;34.70
50292;BME280;36190;54.980;73.388;2023-03-21T12:24:38;101242.66;;;2.75;34.70
50292;BME280;36190;54.980;73.388;2023-03-21T12:27:15;101252.56;;;2.42;35.17
50292;BME280;36190;54.980;73.388;2023-03-21T12:29:57;101244.97;;;2.07;35.39
50292;BME280;36190;54.980;73.388;2023-03-21T12:32:39;101241.63;;;1.44;36.07
50292;BME280;36190;54.980;73.388;2023-03-21T12:35:23;101245.88;;;0.50;36.89
50292;BME280;36190;54.980;73.388;2023-03-21T12:38:01;101237.53;;;-0.45;38.20
50292;BME280;36190;54.980;73.388;2023-03-21T12:40:45;101235.69;;;-1.17;39.19
50292;BME280;36190;54.980;73.388;2023-03-21T12:43:30;101236.06;;;-1.64;39.96
50292;BME280;36190;54.980;73.388;2023-03-21T12:46:03;101240.28;;;-2.02;40.49
50292;BME280;36190;54.980;73.388;2023-03-21T12:48:40;101222.09;;;-2.46;41.14
50292;BME280;36190;54.980;73.388;2023-03-21T12:51:11;101220.94;;;-2.84;41.57
50292;BME280;36190;54.980;73.388;2023-03-21T12:53:47;101223.13;;;-3.18;41.96
50292;BME280;36190;54.980;73.388;2023-03-21T12:56:21;101207.66;;;-3.46;42.70
50292;BME280;36190;54.980;73.388;2023-03-21T12:58:56;101222.28;;;-3.42;42.82
50292;BME280;36190;54.980;73.388;2023-03-21T13:01:26;101222.63;;;-3.51;43.01
50292;BME280;36190;54.980;73.388;2023-03-21T13:06:52;101201.78;;;-4.01;43.36
50292;BME280;36190;54.980;73.388;2023-03-21T13:09:28;101210.91;;;-4.12;44.10
50292;BME280;36190;54.980;73.388;2023-03-21T13:12:04;101224.28;;;-4.23;44.08